createdAt,value
2018-06-11T00:00:38.882Z,19.08
2018-06-11T00:01:48.608Z,19.07
2018-06-11T00:02:58.059Z,19.04
2018-06-11T00:04:07.778Z,19.05
2018-06-11T00:05:17.748Z,18.96
2018-06-11T00:06:27.191Z,19.07
2018-06-11T00:07:37.154Z,19.04
2018-06-11T00:08:46.867Z,19
2018-06-11T00:09:56.572Z,18.91
2018-06-11T00:11:06.585Z,18.89
2018-06-11T00:12:16.583Z,18.96
2018-06-11T00:13:26.291Z,18.82
2018-06-11T00:14:36.269Z,18.97
2018-06-11T00:15:45.988Z,18.88
2018-06-11T00:16:55.953Z,18.82
2018-06-11T00:18:05.923Z,18.86
2018-06-11T00:19:15.889Z,18.89
2018-06-11T00:20:25.849Z,18.81
2018-06-11T00:21:35.814Z,18.76
2018-06-11T00:22:45.544Z,18.76
2018-06-11T00:23:55.514Z,18.73
2018-06-11T00:25:04.737Z,18.76
2018-06-11T00:26:14.453Z,18.83
2018-06-11T00:27:24.405Z,18.76
2018-06-11T00:28:34.389Z,18.74
2018-06-11T00:29:44.356Z,18.71
2018-06-11T00:30:54.060Z,18.74
2018-06-11T00:32:04.043Z,18.71
2018-06-11T00:33:14.016Z,18.73
2018-06-11T00:34:23.977Z,18.67
2018-06-11T00:35:33.956Z,18.67
2018-06-11T00:36:43.927Z,18.73
2018-06-11T00:37:53.903Z,18.71
2018-06-11T00:39:03.866Z,18.71
2018-06-11T00:40:13.570Z,18.67
2018-06-11T00:41:23.538Z,18.68
2018-06-11T00:42:33.514Z,18.58
2018-06-11T00:43:43.485Z,18.6
2018-06-11T00:44:53.203Z,18.58
2018-06-11T00:46:03.180Z,18.57
2018-06-11T00:47:12.890Z,18.52
2018-06-11T00:48:22.852Z,18.46
2018-06-11T00:49:32.566Z,18.36
2018-06-11T00:50:42.536Z,18.36
2018-06-11T00:51:52.249Z,18.48
2018-06-11T00:53:02.215Z,18.37
2018-06-11T00:54:11.674Z,18.37
2018-06-11T00:55:21.635Z,18.39
2018-06-11T00:56:31.347Z,18.41
2018-06-11T00:57:41.308Z,18.31
2018-06-11T00:58:51.298Z,18.3
2018-06-11T01:00:01.000Z,18.28
2018-06-11T01:01:10.707Z,18.28
2018-06-11T01:02:20.668Z,18.27
2018-06-11T01:03:30.644Z,18.26
2018-06-11T01:04:40.674Z,18.23
2018-06-11T01:05:50.653Z,18.21
2018-06-11T01:07:00.616Z,18.28
2018-06-11T01:08:10.335Z,18.21
2018-06-11T01:09:20.294Z,18.23
2018-06-11T01:10:30.019Z,18.31
2018-06-11T01:11:40.210Z,18.27
2018-06-11T01:12:50.184Z,18.27
2018-06-11T01:13:59.631Z,18.26
2018-06-11T01:15:09.596Z,18.23
2018-06-11T01:16:19.301Z,18.24
2018-06-11T01:17:29.262Z,18.19
2018-06-11T01:18:38.967Z,18.23
2018-06-11T01:19:48.925Z,18.15
2018-06-11T01:20:58.625Z,18.13
2018-06-11T01:22:08.080Z,18.26
2018-06-11T01:23:17.782Z,18.26
2018-06-11T01:24:27.240Z,18.13
2018-06-11T01:25:37.201Z,18.09
2018-06-11T01:26:46.907Z,18.13
2018-06-11T01:27:56.885Z,18.21
2018-06-11T01:29:06.856Z,18.09
2018-06-11T01:30:16.830Z,18.18
2018-06-11T01:31:26.795Z,18.11
2018-06-11T01:32:36.501Z,18.12
2018-06-11T01:33:46.467Z,18.13
2018-06-11T01:34:56.425Z,18.11
2018-06-11T01:36:06.406Z,18.24
2018-06-11T01:37:16.120Z,18.13
2018-06-11T01:38:25.821Z,18.09
2018-06-11T01:39:35.821Z,18.15
2018-06-11T01:40:45.778Z,18.12
2018-06-11T01:41:55.739Z,18.13
2018-06-11T01:43:05.706Z,18.15
2018-06-11T01:44:15.659Z,18.08
2018-06-11T01:45:25.618Z,18.11
2018-06-11T01:46:35.331Z,18.13
2018-06-11T01:47:45.036Z,18.11
2018-06-11T01:48:54.741Z,18.12
2018-06-11T01:50:04.700Z,18.09
2018-06-11T01:51:14.679Z,18.11
2018-06-11T01:52:24.666Z,18.08
2018-06-11T01:53:34.635Z,18.16
2018-06-11T01:54:44.346Z,18.08
2018-06-11T01:55:54.061Z,18.03
2018-06-11T01:57:03.773Z,18.09
2018-06-11T01:58:13.742Z,18.05
2018-06-11T01:59:23.708Z,18.05
2018-06-11T02:00:33.429Z,18.09
2018-06-11T02:01:42.896Z,18.03
2018-06-11T02:02:52.617Z,18
2018-06-11T02:04:02.324Z,18.03
2018-06-11T02:05:12.283Z,18
2018-06-11T02:06:21.477Z,18.02
2018-06-11T02:07:31.186Z,18.03
2018-06-11T02:08:41.148Z,17.98
2018-06-11T02:09:51.124Z,18.06
2018-06-11T02:11:01.100Z,18.02
2018-06-11T02:12:11.119Z,18.02
2018-06-11T02:13:21.093Z,18.02
2018-06-11T02:14:31.077Z,18.05
2018-06-11T02:15:40.789Z,18.03
2018-06-11T02:16:50.493Z,17.93
2018-06-11T02:18:00.459Z,17.94
2018-06-11T02:19:10.479Z,17.95
2018-06-11T02:20:20.457Z,17.9
2018-06-11T02:21:30.433Z,17.95
2018-06-11T02:22:40.135Z,17.91
2018-06-11T02:23:49.847Z,17.95
2018-06-11T02:24:59.817Z,17.91
2018-06-11T02:26:09.790Z,17.87
2018-06-11T02:27:19.746Z,17.87
2018-06-11T02:28:29.708Z,17.84
2018-06-11T02:29:39.679Z,17.82
2018-06-11T02:30:49.665Z,17.78
2018-06-11T02:31:59.366Z,17.8
2018-06-11T02:33:09.360Z,17.78
2018-06-11T02:34:19.337Z,17.75
2018-06-11T02:35:29.305Z,17.78
2018-06-11T02:36:39.277Z,17.72
2018-06-11T02:37:49.239Z,17.76
2018-06-11T02:38:59.206Z,17.72
2018-06-11T02:40:08.932Z,17.75
2018-06-11T02:41:18.651Z,17.76
2018-06-11T02:42:28.623Z,17.76
2018-06-11T02:43:38.329Z,17.73
2018-06-11T02:44:48.048Z,17.71
2018-06-11T02:45:58.020Z,17.73
2018-06-11T02:47:07.989Z,17.8
2018-06-11T02:48:17.969Z,17.69
2018-06-11T02:49:27.701Z,17.66
2018-06-11T02:50:37.675Z,17.66
2018-06-11T02:51:47.647Z,17.66
2018-06-11T02:52:57.124Z,17.71
2018-06-11T02:54:07.098Z,17.71
2018-06-11T02:55:17.081Z,17.71
2018-06-11T02:56:26.802Z,17.71
2018-06-11T02:57:36.524Z,17.57
2018-06-11T02:58:46.496Z,17.65
2018-06-11T02:59:56.471Z,17.66
2018-06-11T03:01:06.437Z,17.68
2018-06-11T03:02:16.409Z,17.69
2018-06-11T03:03:26.390Z,17.63
2018-06-11T03:04:36.351Z,17.66
2018-06-11T03:05:46.320Z,17.71
2018-06-11T03:06:56.296Z,17.68
2018-06-11T03:08:06.024Z,17.66
2018-06-11T03:09:15.746Z,17.63
2018-06-11T03:10:25.716Z,17.52
2018-06-11T03:11:35.688Z,17.52
2018-06-11T03:12:45.401Z,17.52
2018-06-11T03:13:55.126Z,17.52
2018-06-11T03:15:05.126Z,17.49
2018-06-11T03:16:14.832Z,17.6
2018-06-11T03:17:24.804Z,17.53
2018-06-11T03:18:34.517Z,17.53
2018-06-11T03:19:44.479Z,17.49
2018-06-11T03:20:53.935Z,17.52
2018-06-11T03:22:03.660Z,17.6
2018-06-11T03:23:13.628Z,17.68
2018-06-11T03:24:23.607Z,17.69
2018-06-11T03:25:33.571Z,17.66
2018-06-11T03:26:43.279Z,17.66
2018-06-11T03:27:53.250Z,17.63
2018-06-11T03:29:03.262Z,17.63
2018-06-11T03:30:13.234Z,17.71
2018-06-11T03:31:23.196Z,17.71
2018-06-11T03:32:32.648Z,17.69
2018-06-11T03:33:42.604Z,17.66
2018-06-11T03:34:52.576Z,17.65
2018-06-11T03:36:02.295Z,17.71
2018-06-11T03:37:12.272Z,17.69
2018-06-11T03:38:22.254Z,17.63
2018-06-11T03:39:32.228Z,17.63
2018-06-11T03:40:41.929Z,17.69
2018-06-11T03:41:51.874Z,17.66
2018-06-11T03:43:01.586Z,17.73
2018-06-11T03:44:11.562Z,17.72
2018-06-11T03:45:21.527Z,17.71
2018-06-11T03:46:31.498Z,17.72
2018-06-11T03:47:41.462Z,17.73
2018-06-11T03:48:51.446Z,17.72
2018-06-11T03:50:01.421Z,17.75
2018-06-11T03:51:11.143Z,17.73
2018-06-11T03:52:21.121Z,17.76
2018-06-11T03:53:31.097Z,17.86
2018-06-11T03:54:40.803Z,17.75
2018-06-11T03:55:50.772Z,17.76
2018-06-11T03:57:00.738Z,17.75
2018-06-11T03:58:10.699Z,17.82
2018-06-11T03:59:20.662Z,17.84
2018-06-11T04:00:30.633Z,17.9
2018-06-11T04:01:40.600Z,17.86
2018-06-11T04:02:50.319Z,17.84
2018-06-11T04:04:00.053Z,17.91
2018-06-11T04:05:10.047Z,17.94
2018-06-11T04:06:19.751Z,17.86
2018-06-11T04:07:29.467Z,17.91
2018-06-11T04:08:39.430Z,17.86
2018-06-11T04:09:49.389Z,17.86
2018-06-11T04:10:59.625Z,17.88
2018-06-11T04:12:09.918Z,17.9
2018-06-11T04:13:19.636Z,17.95
2018-06-11T04:14:29.603Z,17.95
2018-06-11T04:15:39.319Z,17.95
2018-06-11T04:16:49.035Z,17.97
2018-06-11T04:17:59.011Z,17.91
2018-06-11T04:19:08.990Z,17.94
2018-06-11T04:20:18.969Z,17.94
2018-06-11T04:21:28.683Z,17.94
2018-06-11T04:22:38.397Z,17.95
2018-06-11T04:23:48.371Z,17.97
2018-06-11T04:24:58.071Z,18.06
2018-06-11T04:26:07.780Z,18.02
2018-06-11T04:27:17.234Z,18
2018-06-11T04:28:26.949Z,18.05
2018-06-11T04:29:36.903Z,18.05
2018-06-11T04:30:46.441Z,18
2018-06-11T04:31:56.413Z,17.97
2018-06-11T04:33:06.136Z,18.02
2018-06-11T04:34:16.129Z,18.03
2018-06-11T04:35:25.838Z,18.08
2018-06-11T04:36:35.817Z,18.08
2018-06-11T04:37:45.529Z,18.18
2018-06-11T04:38:55.250Z,18.13
2018-06-11T04:40:05.287Z,18.15
2018-06-11T04:41:15.285Z,18.11
2018-06-11T04:42:25.255Z,18.16
2018-06-11T04:43:34.959Z,18.12
2018-06-11T04:44:44.691Z,18.23
2018-06-11T04:45:54.655Z,18.26
2018-06-11T04:47:04.366Z,18.24
2018-06-11T04:48:14.339Z,18.26
2018-06-11T04:49:24.312Z,18.26
2018-06-11T04:50:34.016Z,18.27
2018-06-11T04:51:43.989Z,18.28
2018-06-11T04:52:53.694Z,18.28
2018-06-11T04:54:03.669Z,18.39
2018-06-11T04:55:13.759Z,18.39
2018-06-11T04:56:23.760Z,18.37
2018-06-11T04:57:33.728Z,18.37
2018-06-11T04:58:43.697Z,18.37
2018-06-11T04:59:53.412Z,18.36
2018-06-11T05:01:03.380Z,18.36
2018-06-11T05:02:13.093Z,18.41
2018-06-11T05:03:23.068Z,18.37
2018-06-11T05:04:32.771Z,18.34
2018-06-11T05:05:42.744Z,18.45
2018-06-11T05:06:52.459Z,18.48
2018-06-11T05:08:02.184Z,18.53
2018-06-11T05:09:12.198Z,18.53
2018-06-11T05:10:21.931Z,18.61
2018-06-11T05:11:31.122Z,18.48
2018-06-11T05:12:41.085Z,18.58
2018-06-11T05:13:50.545Z,18.57
2018-06-11T05:15:00.508Z,18.52
2018-06-11T05:16:10.475Z,18.55
2018-06-11T05:17:20.192Z,18.53
2018-06-11T05:18:30.163Z,18.61
2018-06-11T05:19:40.175Z,18.64
2018-06-11T05:20:49.902Z,18.71
2018-06-11T05:21:59.879Z,18.7
2018-06-11T05:23:09.872Z,18.58
2018-06-11T05:24:19.833Z,18.71
2018-06-11T05:25:29.861Z,18.71
2018-06-11T05:26:39.826Z,18.7
2018-06-11T05:27:49.526Z,18.76
2018-06-11T05:28:59.235Z,18.78
2018-06-11T05:30:08.951Z,18.78
2018-06-11T05:31:18.940Z,18.86
2018-06-11T05:32:28.915Z,18.98
2018-06-11T05:33:38.881Z,18.89
2018-06-11T05:34:49.010Z,18.91
2018-06-11T05:35:58.941Z,18.97
2018-06-11T05:37:08.909Z,19.09
2018-06-11T05:38:18.633Z,18.96
2018-06-11T05:39:28.348Z,18.96
2018-06-11T05:40:38.495Z,18.86
2018-06-11T05:41:48.529Z,18.85
2018-06-11T05:42:58.253Z,18.88
2018-06-11T05:44:08.225Z,18.86
2018-06-11T05:45:18.196Z,18.85
2018-06-11T05:46:28.160Z,18.82
2018-06-11T05:47:37.914Z,18.83
2018-06-11T05:48:47.631Z,18.73
2018-06-11T05:49:57.628Z,18.76
2018-06-11T05:51:07.660Z,18.73
2018-06-11T05:52:17.416Z,18.74
2018-06-11T05:53:27.504Z,18.76
2018-06-11T05:54:37.336Z,18.78
2018-06-11T05:55:47.321Z,18.76
2018-06-11T05:56:57.352Z,18.76
2018-06-11T05:58:07.097Z,18.74
2018-06-11T05:59:17.059Z,18.73
2018-06-11T06:00:27.042Z,18.67
2018-06-11T06:01:37.040Z,18.71
2018-06-11T06:02:47.027Z,18.74
2018-06-11T06:03:56.749Z,18.74
2018-06-11T06:05:06.736Z,18.71
2018-06-11T06:06:16.721Z,18.74
2018-06-11T06:07:26.708Z,18.81
2018-06-11T06:08:36.489Z,18.86
2018-06-11T06:09:46.486Z,18.88
2018-06-11T06:10:56.469Z,18.97
2018-06-11T06:12:06.469Z,18.94
2018-06-11T06:13:16.454Z,18.96
2018-06-11T06:14:26.172Z,19.05
2018-06-11T06:15:36.138Z,19.04
2018-06-11T06:16:45.862Z,19.19
2018-06-11T06:17:55.588Z,19.2
2018-06-11T06:19:05.584Z,19.22
2018-06-11T06:20:15.576Z,19.22
2018-06-11T06:21:25.042Z,19.24
2018-06-11T06:22:34.768Z,19.27
2018-06-11T06:23:44.494Z,19.29
2018-06-11T06:24:53.959Z,19.32
2018-06-11T06:26:03.931Z,19.3
2018-06-11T06:27:13.902Z,19.38
2018-06-11T06:28:23.908Z,19.37
2018-06-11T06:29:33.626Z,19.44
2018-06-11T06:30:43.611Z,19.57
2018-06-11T06:31:53.321Z,19.56
2018-06-11T06:33:03.307Z,19.63
2018-06-11T06:34:13.473Z,19.79
2018-06-11T06:35:23.656Z,19.84
2018-06-11T06:36:33.615Z,19.85
2018-06-11T06:37:43.343Z,19.79
2018-06-11T06:38:53.328Z,19.82
2018-06-11T06:40:03.295Z,19.82
2018-06-11T06:41:13.263Z,19.78
2018-06-11T06:42:22.723Z,19.9
2018-06-11T06:43:32.462Z,19.93
2018-06-11T06:44:42.700Z,20.02
2018-06-11T06:45:52.428Z,19.97
2018-06-11T06:47:02.153Z,20
2018-06-11T06:48:11.859Z,19.97
2018-06-11T06:49:21.840Z,20.12
2018-06-11T06:50:31.828Z,20.1
2018-06-11T06:51:41.541Z,20.03
2018-06-11T06:52:51.529Z,19.99
2018-06-11T06:54:01.506Z,19.85
2018-06-11T06:55:11.210Z,19.9
2018-06-11T06:56:20.985Z,19.74
2018-06-11T06:57:30.976Z,19.64
2018-06-11T06:58:40.955Z,19.55
2018-06-11T06:59:50.949Z,19.56
2018-06-11T07:01:00.924Z,19.52
2018-06-11T07:02:10.886Z,19.45
2018-06-11T07:03:20.859Z,19.41
2018-06-11T07:04:30.829Z,19.45
2018-06-11T07:05:40.821Z,19.44
2018-06-11T07:06:50.799Z,19.42
2018-06-11T07:08:00.826Z,19.37
2018-06-11T07:09:10.554Z,19.35
2018-06-11T07:10:20.269Z,19.48
2018-06-11T07:11:30.257Z,19.52
2018-06-11T07:12:39.712Z,19.53
2018-06-11T07:13:49.808Z,19.49
2018-06-11T07:14:59.821Z,19.62
2018-06-11T07:16:09.297Z,19.57
2018-06-11T07:17:19.295Z,19.55
2018-06-11T07:18:29.249Z,19.42
2018-06-11T07:19:39.240Z,19.52
2018-06-11T07:20:49.246Z,19.42
2018-06-11T07:21:59.219Z,19.53
2018-06-11T07:23:08.947Z,19.47
2018-06-11T07:24:18.925Z,19.42
2018-06-11T07:25:28.640Z,19.59
2018-06-11T07:26:38.620Z,19.6
2018-06-11T07:27:48.366Z,19.63
2018-06-11T07:28:58.088Z,19.7
2018-06-11T07:30:08.078Z,19.81
2018-06-11T07:31:17.960Z,19.79
2018-06-11T07:32:27.778Z,19.78
2018-06-11T07:33:37.383Z,19.67
2018-06-11T07:34:47.383Z,19.71
2018-06-11T07:35:57.157Z,19.64
2018-06-11T07:37:06.922Z,19.62
2018-06-11T07:38:16.927Z,19.71
2018-06-11T07:39:26.922Z,19.82
2018-06-11T07:40:36.897Z,19.92
2018-06-11T07:41:46.620Z,19.87
2018-06-11T07:42:56.356Z,20.08
2018-06-11T07:44:06.067Z,20.21
2018-06-11T07:45:15.791Z,20.11
2018-06-11T07:46:25.778Z,20.21
2018-06-11T07:47:35.541Z,20.36
2018-06-11T07:48:45.627Z,20.3
2018-06-11T07:49:55.605Z,20.32
2018-06-11T07:51:05.625Z,20.18
2018-06-11T07:52:15.620Z,19.97
2018-06-11T07:53:25.340Z,19.92
2018-06-11T07:54:35.334Z,19.89
2018-06-11T07:55:45.316Z,19.85
2018-06-11T07:56:55.316Z,19.92
2018-06-11T07:58:05.039Z,19.74
2018-06-11T07:59:15.018Z,19.85
2018-06-11T08:00:24.740Z,19.89
2018-06-11T08:01:34.723Z,20.1
2018-06-11T08:02:44.724Z,20.33
2018-06-11T08:03:54.721Z,20.29
2018-06-11T08:05:04.443Z,20.33
2018-06-11T08:06:14.434Z,20.34
2018-06-11T08:07:24.501Z,20.27
2018-06-11T08:08:34.613Z,20.21
2018-06-11T08:09:44.325Z,20.36
2018-06-11T08:10:54.295Z,20.37
2018-06-11T08:12:04.282Z,20.52
2018-06-11T08:13:14.011Z,20.7
2018-06-11T08:14:24.010Z,20.89
2018-06-11T08:15:34.004Z,20.89
2018-06-11T08:16:43.987Z,21.11
2018-06-11T08:17:53.965Z,21.07
2018-06-11T08:19:03.959Z,21.13
2018-06-11T08:20:13.937Z,21.13
2018-06-11T08:21:23.937Z,21.11
2018-06-11T08:22:33.925Z,21.01
2018-06-11T08:23:43.906Z,20.98
2018-06-11T08:24:53.885Z,21.1
2018-06-11T08:26:03.867Z,21.13
2018-06-11T08:27:13.864Z,21.32
2018-06-11T08:28:23.845Z,21.48
2018-06-11T08:29:33.598Z,21.37
2018-06-11T08:30:43.604Z,21.44
2018-06-11T08:31:53.322Z,21.33
2018-06-11T08:33:03.042Z,21.62
2018-06-11T08:34:13.032Z,21.5
2018-06-11T08:35:23.027Z,21.56
2018-06-11T08:36:33.020Z,21.45
2018-06-11T08:37:42.765Z,21.51
2018-06-11T08:38:52.756Z,21.53
2018-06-11T08:40:02.736Z,21.65
2018-06-11T08:41:12.712Z,21.7
2018-06-11T08:42:22.439Z,21.58
2018-06-11T08:43:32.431Z,21.48
2018-06-11T08:44:41.928Z,21.44
2018-06-11T08:45:51.903Z,21.26
2018-06-11T08:47:01.884Z,21.07
2018-06-11T08:48:11.355Z,21.04
2018-06-11T08:49:21.376Z,20.93
2018-06-11T08:50:31.110Z,20.8
2018-06-11T08:51:41.087Z,20.88
2018-06-11T08:52:51.055Z,20.64
2018-06-11T08:54:01.050Z,20.7
2018-06-11T08:55:11.055Z,20.9
2018-06-11T08:56:21.063Z,20.96
2018-06-11T08:57:30.775Z,21.11
2018-06-11T08:58:40.789Z,21.25
2018-06-11T08:59:50.709Z,21.28
2018-06-11T09:01:01.002Z,21.38
2018-06-11T09:02:10.727Z,21.47
2018-06-11T09:03:20.435Z,21.5
2018-06-11T09:04:30.148Z,21.43
2018-06-11T09:05:40.169Z,21.41
2018-06-11T09:06:49.901Z,21.28
2018-06-11T09:07:59.887Z,21.25
2018-06-11T09:09:09.892Z,21.33
2018-06-11T09:10:19.874Z,21.33
2018-06-11T09:11:29.603Z,21.45
2018-06-11T09:12:39.731Z,21.54
2018-06-11T09:13:49.791Z,21.63
2018-06-11T09:14:59.761Z,21.62
2018-06-11T09:16:09.732Z,21.83
2018-06-11T09:17:19.727Z,21.81
2018-06-11T09:18:30.403Z,21.74
2018-06-11T09:19:40.208Z,21.8
2018-06-11T09:20:49.916Z,21.96
2018-06-11T09:21:59.630Z,22.15
2018-06-11T09:23:09.381Z,22.14
2018-06-11T09:24:19.404Z,22.16
2018-06-11T09:25:29.414Z,22.1
2018-06-11T09:26:39.394Z,22.01
2018-06-11T09:27:49.381Z,22.04
2018-06-11T09:28:59.156Z,22.16
2018-06-11T09:30:08.914Z,22.15
2018-06-11T09:31:18.918Z,21.96
2018-06-11T09:32:28.886Z,22.08
2018-06-11T09:33:38.882Z,22.22
2018-06-11T09:34:48.867Z,22.34
2018-06-11T09:35:58.841Z,22.7
2018-06-11T09:37:08.567Z,22.81
2018-06-11T09:38:18.784Z,23.01
2018-06-11T09:39:28.179Z,23.21
2018-06-11T09:40:37.661Z,22.99
2018-06-11T09:41:47.627Z,22.84
2018-06-11T09:42:57.361Z,22.78
2018-06-11T09:44:06.870Z,22.91
2018-06-11T09:45:17.041Z,22.91
2018-06-11T09:46:26.774Z,22.84
2018-06-11T09:47:36.758Z,22.88
2018-06-11T09:48:46.785Z,22.81
2018-06-11T09:49:56.761Z,22.74
2018-06-11T09:51:06.772Z,22.52
2018-06-11T09:52:16.526Z,22.21
2018-06-11T09:53:26.285Z,22.38
2018-06-11T09:54:36.077Z,22.41
2018-06-11T09:55:46.209Z,22.56
2018-06-11T09:56:56.033Z,22.76
2018-06-11T09:58:05.772Z,22.96
2018-06-11T09:59:15.764Z,22.78
2018-06-11T10:00:25.476Z,22.7
2018-06-11T10:01:35.469Z,22.41
2018-06-11T10:02:44.942Z,22.31
2018-06-11T10:03:54.930Z,22.36
2018-06-11T10:05:04.952Z,22.38
2018-06-11T10:06:14.936Z,22.44
2018-06-11T10:07:24.938Z,22.36
2018-06-11T10:08:34.928Z,22.1
2018-06-11T10:09:44.925Z,21.96
2018-06-11T10:10:54.661Z,22
2018-06-11T10:12:04.397Z,22.07
2018-06-11T10:13:14.430Z,21.99
2018-06-11T10:14:24.413Z,22.16
2018-06-11T10:15:34.399Z,22.31
2018-06-11T10:16:44.399Z,22.71
2018-06-11T10:17:54.373Z,22.86
2018-06-11T10:19:04.188Z,22.93
2018-06-11T10:20:14.265Z,22.8
2018-06-11T10:21:23.739Z,22.52
2018-06-11T10:22:33.467Z,22.53
2018-06-11T10:23:43.193Z,22.33
2018-06-11T10:24:53.378Z,22.12
2018-06-11T10:26:03.489Z,22.12
2018-06-11T10:27:13.202Z,22.22
2018-06-11T10:28:23.189Z,22.53
2018-06-11T10:29:32.641Z,22.65
2018-06-11T10:30:42.627Z,22.63
2018-06-11T10:31:52.653Z,22.77
2018-06-11T10:33:02.625Z,22.93
2018-06-11T10:34:12.592Z,22.89
2018-06-11T10:35:22.579Z,23.01
2018-06-11T10:36:32.310Z,23.47
2018-06-11T10:37:42.071Z,23.7
2018-06-11T10:38:51.826Z,23.99
2018-06-11T10:40:01.821Z,24.24
2018-06-11T10:41:11.818Z,24.47
2018-06-11T10:42:21.567Z,24.46
2018-06-11T10:43:31.316Z,24.4
2018-06-11T10:44:41.304Z,24.25
2018-06-11T10:45:51.285Z,24.11
2018-06-11T10:47:01.281Z,24.22
2018-06-11T10:48:11.262Z,24.51
2018-06-11T10:49:21.262Z,24.56
2018-06-11T10:50:31.250Z,24.56
2018-06-11T10:51:41.258Z,24.79
2018-06-11T10:52:51.469Z,24.88
2018-06-11T10:54:01.479Z,25.03
2018-06-11T10:55:11.477Z,25.29
2018-06-11T10:56:21.218Z,25.68
2018-06-11T10:57:31.224Z,25.88
2018-06-11T10:58:41.274Z,25.83
2018-06-11T10:59:50.752Z,25.41
2018-06-11T11:01:00.824Z,25.33
2018-06-11T11:02:10.816Z,25.54
2018-06-11T11:03:20.301Z,25.83
2018-06-11T11:04:30.063Z,26.3
2018-06-11T11:05:40.164Z,26.31
2018-06-11T11:06:50.157Z,26.34
2018-06-11T11:08:00.163Z,25.93
2018-06-11T11:09:09.897Z,25.68
2018-06-11T11:10:19.899Z,25.01
2018-06-11T11:11:29.926Z,24.82
2018-06-11T11:12:40.195Z,24.53
2018-06-11T11:13:50.304Z,24.38
2018-06-11T11:15:00.030Z,24.37
2018-06-11T11:16:10.084Z,24.31
2018-06-11T11:17:19.807Z,24.24
2018-06-11T11:18:29.562Z,24.51
2018-06-11T11:19:39.547Z,25.06
2018-06-11T11:20:49.386Z,25.37
2018-06-11T11:21:59.182Z,25.7
2018-06-11T11:23:09.172Z,25.54
2018-06-11T11:24:19.174Z,25.39
2018-06-11T11:25:28.926Z,25.18
2018-06-11T11:26:38.925Z,25.39
2018-06-11T11:27:48.934Z,25.62
2018-06-11T11:28:58.669Z,25.81
2018-06-11T11:30:08.662Z,25.91
2018-06-11T11:31:18.144Z,25.66
2018-06-11T11:32:28.146Z,25.48
2018-06-11T11:33:38.125Z,25.59
2018-06-11T11:34:48.108Z,25.88
2018-06-11T11:35:57.811Z,25.98
2018-06-11T11:37:07.556Z,26.06
2018-06-11T11:38:17.559Z,26.16
2018-06-11T11:39:27.552Z,26.33
2018-06-11T11:40:37.555Z,26.31
2018-06-11T11:41:47.317Z,26.01
2018-06-11T11:42:57.322Z,25.68
2018-06-11T11:44:07.331Z,25.68
2018-06-11T11:45:17.351Z,25.43
2018-06-11T11:46:27.086Z,25.3
2018-06-11T11:47:37.104Z,25.36
2018-06-11T11:48:47.106Z,25.51
2018-06-11T11:49:57.105Z,25.95
2018-06-11T11:51:06.996Z,26.18
2018-06-11T11:52:17.122Z,26.01
2018-06-11T11:53:27.141Z,25.92
2018-06-11T11:54:37.127Z,25.98
2018-06-11T11:55:47.121Z,25.83
2018-06-11T11:56:57.121Z,25.61
2018-06-11T11:58:07.124Z,25.51
2018-06-11T11:59:17.113Z,25.43
2018-06-11T12:00:26.848Z,25.3
2018-06-11T12:01:36.932Z,25.41
2018-06-11T12:02:47.001Z,25.58
2018-06-11T12:03:56.983Z,25.7
2018-06-11T12:05:06.969Z,26.04
2018-06-11T12:06:16.958Z,26.33
2018-06-11T12:07:26.437Z,25.98
2018-06-11T12:08:36.446Z,25.91
2018-06-11T12:09:46.427Z,25.93
2018-06-11T12:10:56.427Z,25.71
2018-06-11T12:12:06.408Z,25.49
2018-06-11T12:13:15.880Z,25.34
2018-06-11T12:14:25.347Z,25.21
2018-06-11T12:15:35.332Z,25.15
2018-06-11T12:16:45.339Z,25.09
2018-06-11T12:17:55.082Z,25.36
2018-06-11T12:19:05.239Z,25.67
2018-06-11T12:20:15.542Z,25.95
2018-06-11T12:21:25.523Z,26.33
2018-06-11T12:22:35.507Z,26.23
2018-06-11T12:23:45.480Z,26.04
2018-06-11T12:24:55.469Z,26.39
2018-06-11T12:26:05.185Z,26.61
2018-06-11T12:27:15.172Z,26.45
2018-06-11T12:28:25.172Z,26.18
2018-06-11T12:29:34.895Z,25.76
2018-06-11T12:30:44.871Z,25.67
2018-06-11T12:31:54.874Z,25.7
2018-06-11T12:33:04.879Z,25.99
2018-06-11T12:34:14.873Z,26.34
2018-06-11T12:35:24.605Z,26.59
2018-06-11T12:36:34.061Z,27.23
2018-06-11T12:37:44.048Z,27.52
2018-06-11T12:38:54.018Z,27.34
2018-06-11T12:40:03.747Z,27.13
2018-06-11T12:41:13.747Z,27.03
2018-06-11T12:42:23.483Z,26.7
2018-06-11T12:43:33.476Z,26.61
2018-06-11T12:44:43.485Z,26.45
2018-06-11T12:45:53.475Z,26.33
2018-06-11T12:47:03.446Z,26.36
2018-06-11T12:48:13.179Z,26.3
2018-06-11T12:49:22.884Z,26.39
2018-06-11T12:50:32.580Z,26.37
2018-06-11T12:51:42.565Z,26.3
2018-06-11T12:52:52.816Z,26.19
2018-06-11T12:54:02.799Z,26.04
2018-06-11T12:55:12.524Z,25.95
2018-06-11T12:56:22.623Z,26.11
2018-06-11T12:57:32.833Z,26.71
2018-06-11T12:58:42.563Z,27.18
2018-06-11T12:59:52.556Z,27.71
2018-06-11T13:01:02.566Z,28.33
2018-06-11T13:02:12.811Z,28.35
2018-06-11T13:03:22.599Z,28.31
2018-06-11T13:04:32.592Z,28.25
2018-06-11T13:05:42.591Z,28.19
2018-06-11T13:06:52.567Z,28.23
2018-06-11T13:08:02.569Z,28.57
2018-06-11T13:09:12.548Z,28.64
2018-06-11T13:10:22.563Z,28.34
2018-06-11T13:11:32.308Z,28.56
2018-06-11T13:12:42.033Z,28.77
2018-06-11T13:13:51.767Z,28.83
2018-06-11T13:15:01.579Z,28.92
2018-06-11T13:16:11.601Z,28.67
2018-06-11T13:17:21.621Z,28.77
2018-06-11T13:18:31.102Z,28.22
2018-06-11T13:19:40.839Z,27.61
2018-06-11T13:20:50.556Z,27.5
2018-06-11T13:22:00.299Z,27.34
2018-06-11T13:23:10.104Z,27.53
2018-06-11T13:24:19.311Z,27.68
2018-06-11T13:25:29.306Z,27.9
2018-06-11T13:26:39.304Z,27.82
2018-06-11T13:27:49.032Z,27.94
2018-06-11T13:28:59.027Z,27.79
2018-06-11T13:30:09.049Z,27.3
2018-06-11T13:31:19.029Z,27.11
2018-06-11T13:32:29.021Z,26.81
2018-06-11T13:33:39.006Z,26.63
2018-06-11T13:34:48.986Z,26.52
2018-06-11T13:35:58.724Z,26.79
2018-06-11T13:37:08.925Z,26.97
2018-06-11T13:38:19.073Z,26.92
2018-06-11T13:39:28.813Z,26.91
2018-06-11T13:40:38.809Z,26.52
2018-06-11T13:41:48.776Z,26.61
2018-06-11T13:42:58.769Z,26.74
2018-06-11T13:44:08.740Z,26.74
2018-06-11T13:45:18.477Z,27.04
2018-06-11T13:46:28.469Z,27.38
2018-06-11T13:47:38.474Z,27.28
2018-06-11T13:48:48.448Z,27.41
2018-06-11T13:49:58.420Z,27.5
2018-06-11T13:51:08.460Z,27.57
2018-06-11T13:52:18.446Z,27.71
2018-06-11T13:53:28.427Z,27.83
2018-06-11T13:54:38.470Z,28.16
2018-06-11T13:55:48.465Z,28.13
2018-06-11T13:56:58.499Z,28.49
2018-06-11T13:58:08.673Z,28.62
2018-06-11T13:59:18.960Z,28.93
2018-06-11T14:00:28.933Z,29.42
2018-06-11T14:01:38.919Z,29.71
2018-06-11T14:02:48.931Z,29.61
2018-06-11T14:03:58.673Z,29.74
2018-06-11T14:05:08.670Z,29.44
2018-06-11T14:06:18.667Z,29.5
2018-06-11T14:07:28.642Z,29.46
2018-06-11T14:08:38.694Z,28.82
2018-06-11T14:09:48.672Z,28.23
2018-06-11T14:10:58.717Z,28.01
2018-06-11T14:12:08.711Z,27.35
2018-06-11T14:13:18.702Z,27.37
2018-06-11T14:14:28.707Z,27.41
2018-06-11T14:15:38.466Z,27.2
2018-06-11T14:16:48.473Z,27.25
2018-06-11T14:17:58.504Z,27.48
2018-06-11T14:19:08.508Z,27.88
2018-06-11T14:20:18.527Z,28.37
2018-06-11T14:21:28.544Z,28.47
2018-06-11T14:22:38.552Z,28.94
2018-06-11T14:23:48.289Z,29.39
2018-06-11T14:24:58.048Z,29.4
2018-06-11T14:26:08.065Z,29.61
2018-06-11T14:27:18.080Z,29.98
2018-06-11T14:28:27.817Z,30.06
2018-06-11T14:29:37.880Z,29.68
2018-06-11T14:30:47.882Z,29.58
2018-06-11T14:31:57.603Z,29.69
2018-06-11T14:33:07.618Z,29.67
2018-06-11T14:34:17.613Z,29.81
2018-06-11T14:35:27.340Z,29.58
2018-06-11T14:36:37.348Z,29.21
2018-06-11T14:37:47.352Z,29.05
2018-06-11T14:38:57.355Z,28.96
2018-06-11T14:40:07.088Z,28.92
2018-06-11T14:41:16.939Z,29.03
2018-06-11T14:42:26.919Z,28.93
2018-06-11T14:43:36.673Z,29
2018-06-11T14:44:46.417Z,29.13
2018-06-11T14:45:56.161Z,29.06
2018-06-11T14:47:06.159Z,28.46
2018-06-11T14:48:16.167Z,28.13
2018-06-11T14:49:26.140Z,27.82
2018-06-11T14:50:35.882Z,27.86
2018-06-11T14:51:45.867Z,28.12
2018-06-11T14:52:55.854Z,28.45
2018-06-11T14:54:05.615Z,28.52
2018-06-11T14:55:15.612Z,28.55
2018-06-11T14:56:25.358Z,28.9
2018-06-11T14:57:35.360Z,29.02
2018-06-11T14:58:45.086Z,29
2018-06-11T14:59:55.069Z,28.93
2018-06-11T15:01:05.315Z,28.83
2018-06-11T15:02:15.308Z,28.96
2018-06-11T15:03:25.304Z,28.87